Time;durP1;ratioP1;P1;durP2;ratioP2;P2;SDS_P1;SDS_P2;PMS_P1;PMS_P2;Temp;Humidity;BMP_temperature;BMP_pressure;BME280_temperature;BME280_humidity;BME280_pressure;Samples;Min_cycle;Max_cycle;Signal;HPM_P1;HPM_P2
2023/06/14 00:00:40;;;;;;;9.57;5.73;;;;;;;18.29;47.94;100044.09;4940155;29;20121;-70
2023/06/14 00:03:09;;;;;;;7.55;5.15;;;;;;;18.33;48.08;100056.25;4955378;28;20498;-71
2023/06/14 00:05:42;;;;;;;7.80;5.38;;;;;;;18.21;48.31;100050.09;4923876;29;20044;-69
2023/06/14 00:08:10;;;;;;;8.43;5.72;;;;;;;18.14;48.71;100056.09;4943968;28;20513;-71
2023/06/14 00:10:41;;;;;;;7.35;5.50;;;;;;;18.09;48.75;100061.00;4935347;29;20065;-70
2023/06/14 00:13:10;;;;;;;7.47;5.60;;;;;;;18.05;48.63;100055.03;4933701;29;20051;-70
2023/06/14 00:15:36;;;;;;;7.28;5.57;;;;;;;18.06;48.85;100061.25;4950289;28;20051;-70
2023/06/14 00:18:04;;;;;;;7.90;5.90;;;;;;;18.05;48.76;100057.72;4935864;29;20057;-71
2023/06/14 00:20:33;;;;;;;6.03;4.90;;;;;;;18.07;48.88;100068.31;4949776;28;20070;-70
2023/06/14 00:23:00;;;;;;;8.57;5.32;;;;;;;18.01;48.95;100058.94;4933175;29;20051;-70
2023/06/14 00:25:28;;;;;;;6.88;5.25;;;;;;;17.94;49.60;100057.78;4931029;29;20051;-70
2023/06/14 00:27:57;;;;;;;6.78;5.50;;;;;;;17.95;49.14;100062.13;4950736;28;20481;-71
2023/06/14 00:30:24;;;;;;;8.15;5.72;;;;;;;17.88;49.31;100056.44;4952246;28;20062;-70
2023/06/14 00:32:52;;;;;;;5.70;5.20;;;;;;;17.90;49.30;100061.69;4950178;28;20057;-70
2023/06/14 00:35:20;;;;;;;5.93;5.30;;;;;;;17.83;49.55;100055.97;4947610;28;20118;-69
2023/06/14 00:37:48;;;;;;;6.97;5.53;;;;;;;17.86;49.50;100061.06;4926434;28;20051;-70
2023/06/14 00:40:17;;;;;;;6.80;4.95;;;;;;;17.82;49.68;100054.25;4948257;28;20130;-69
2023/06/14 00:42:44;;;;;;;6.25;5.28;;;;;;;17.80;49.48;100061.56;4947533;28;20051;-69
2023/06/14 00:45:12;;;;;;;7.65;5.30;;;;;;;17.69;49.63;100047.38;4930501;29;20050;-69
2023/06/14 00:47:42;;;;;;;8.65;5.80;;;;;;;17.73;49.53;100059.53;4949381;28;20055;-70
2023/06/14 00:50:10;;;;;;;8.55;5.43;;;;;;;17.71;49.38;100058.81;4954394;28;20066;-69
2023/06/14 00:52:36;;;;;;;6.32;5.25;;;;;;;17.70;49.25;100059.78;4945658;28;20146;-70
2023/06/14 00:55:05;;;;;;;7.55;5.05;;;;;;;17.74;49.00;100063.91;4946452;28;20517;-70
2023/06/14 00:57:40;;;;;;;5.78;4.80;;;;;;;17.76;48.99;100062.81;4944690;28;20131;-69
2023/06/14 01:00:10;;;;;;;6.32;5.00;;;;;;;17.75;48.82;100058.44;4916633;28;20062;-70
2023/06/14 01:02:37;;;;;;;5.60;5.00;;;;;;;17.73;49.02;100059.53;4947591;28;20514;-70
2023/06/14 01:05:06;;;;;;;8.40;5.30;;;;;;;17.69;49.16;100066.97;4952488;28;20081;-69
2023/06/14 01:08:05;;;;;;;6.32;5.10;;;;;;;17.65;49.47;100062.81;4951820;28;20047;-70
2023/06/14 01:10:54;;;;;;;7.05;5.85;;;;;;;17.59;49.94;100065.97;4935904;28;20118;-69
2023/06/14 01:13:37;;;;;;;8.38;5.60;;;;;;;17.56;49.58;100060.88;4940100;28;20039;-70
2023/06/14 01:16:06;;;;;;;7.03;5.05;;;;;;;17.51;49.57;100055.03;4943473;28;20047;-70
2023/06/14 01:18:34;;;;;;;10.85;5.40;;;;;;;17.49;49.70;100070.38;4948462;28;20043;-70
2023/06/14 01:21:05;;;;;;;8.10;5.22;;;;;;;17.48;49.99;100066.84;4944462;28;20506;-69
2023/06/14 01:23:32;;;;;;;8.60;5.72;;;;;;;17.51;49.78;100069.25;4931783;29;20133;-69
2023/06/14 01:26:04;;;;;;;8.32;5.30;;;;;;;17.52;49.65;100068.28;4941769;28;20043;-69
2023/06/14 01:28:33;;;;;;;8.80;5.15;;;;;;;17.52;49.86;100070.97;4927402;29;20080;-69
2023/06/14 01:31:05;;;;;;;8.07;5.28;;;;;;;17.49;49.90;100062.34;4945389;29;20051;-69
2023/06/14 01:33:34;;;;;;;13.85;5.03;;;;;;;17.49;49.38;100063.19;4951144;28;20481;-69
2023/06/14 01:36:02;;;;;;;8.07;4.78;;;;;;;17.52;49.81;100064.75;4945132;28;20051;-70
2023/06/14 01:38:30;;;;;;;5.82;4.80;;;;;;;17.51;49.34;100071.09;4948049;28;20047;-69
2023/06/14 01:40:59;;;;;;;7.05;4.88;;;;;;;17.49;49.22;100071.22;4946601;28;20058;-69
2023/06/14 01:43:27;;;;;;;6.00;5.00;;;;;;;17.45;49.36;100066.25;4946051;29;20055;-70
2023/06/14 01:45:55;;;;;;;7.90;4.95;;;;;;;17.44;49.65;100062.72;4927732;29;20059;-69
2023/06/14 01:48:22;;;;;;;9.57;4.85;;;;;;;17.38;49.96;100057.00;4930962;29;20051;-69
2023/06/14 01:50:49;;;;;;;6.22;5.10;;;;;;;17.42;49.87;100074.53;4946319;29;20061;-69
2023/06/14 01:53:16;;;;;;;8.07;5.05;;;;;;;17.35;50.08;100065.28;4946916;28;20134;-69
2023/06/14 01:55:44;;;;;;;6.72;4.78;;;;;;;17.33;50.37;100072.56;4927460;29;20051;-70
2023/06/14 01:58:11;;;;;;;7.78;4.72;;;;;;;17.29;50.42;100063.09;4945876;28;20051;-69
2023/06/14 02:00:38;;;;;;;7.65;5.13;;;;;;;17.27;50.62;100062.38;4946275;28;20420;-69
2023/06/14 02:03:04;;;;;;;7.35;4.80;;;;;;;17.26;50.67;100066.88;4929771;29;20841;-69
2023/06/14 02:05:31;;;;;;;7.25;5.20;;;;;;;17.19;51.04;100065.63;4946035;28;20134;-69
2023/06/14 02:07:58;;;;;;;9.77;5.07;;;;;;;17.10;51.42;100061.88;4943328;28;20115;-69
2023/06/14 02:10:24;;;;;;;6.03;5.05;;;;;;;17.07;51.61;100055.91;4945250;28;20083;-70
2023/06/14 02:12:51;;;;;;;5.82;4.95;;;;;;;17.04;51.57;100064.19;4933777;28;20047;-70
2023/06/14 02:15:19;;;;;;;7.43;5.38;;;;;;;16.95;52.05;100065.78;4932752;28;20053;-69
2023/06/14 02:17:49;;;;;;;6.60;4.75;;;;;;;16.87;52.50;100068.19;4928693;29;20069;-70
2023/06/14 02:20:16;;;;;;;7.63;5.22;;;;;;;16.91;52.58;100072.31;4945670;28;20039;-69
2023/06/14 02:22:44;;;;;;;7.50;5.18;;;;;;;16.85;52.66;100078.16;4947914;28;20161;-70
2023/06/14 02:25:11;;;;;;;8.25;4.82;;;;;;;16.80;53.16;100083.00;4947934;28;20074;-70
2023/06/14 02:27:38;;;;;;;6.00;5.05;;;;;;;16.78;53.30;100076.94;4948630;28;20182;-70
2023/06/14 02:30:05;;;;;;;6.55;4.88;;;;;;;16.71;53.59;100068.53;4952296;28;20062;-69
2023/06/14 02:32:35;;;;;;;7.72;5.45;;;;;;;16.69;53.94;100072.28;4953448;28;20055;-69
2023/06/14 02:35:02;;;;;;;;;;;;;;;16.71;53.97;100084.56;4948583;29;20160;-69
2023/06/14 02:37:30;;;;;;;6.68;5.00;;;;;;;16.64;54.11;100086.03;4926322;29;19926;-69
2023/06/14 02:39:56;;;;;;;5.78;4.85;;;;;;;16.54;54.40;100081.44;4931768;29;20051;-70
2023/06/14 02:42:23;;;;;;;7.57;5.22;;;;;;;16.49;54.54;100077.31;4948286;28;20051;-69
2023/06/14 02:44:51;;;;;;;11.65;5.45;;;;;;;16.43;54.70;100077.78;4932935;29;20051;-70
2023/06/14 02:47:18;;;;;;;8.05;5.53;;;;;;;16.43;55.29;100079.59;4945302;28;20059;-69
2023/06/14 02:49:48;;;;;;;7.20;4.82;;;;;;;16.41;55.31;100078.88;4933006;29;20051;-70
2023/06/14 02:52:15;;;;;;;6.82;5.05;;;;;;;16.40;54.95;100080.69;4926263;29;20512;-70
2023/06/14 02:54:42;;;;;;;6.03;4.85;;;;;;;16.36;55.11;100078.38;4949406;28;20103;-69
2023/06/14 02:57:10;;;;;;;5.40;4.90;;;;;;;16.36;55.20;100083.72;4926783;29;20579;-69
2023/06/14 02:59:37;;;;;;;8.13;5.07;;;;;;;16.27;55.37;100079.06;4929511;29;20047;-70
2023/06/14 03:02:04;;;;;;;9.68;4.93;;;;;;;16.29;55.76;100095.84;4943773;29;20044;-70
2023/06/14 03:04:37;;;;;;;7.80;5.57;;;;;;;16.26;55.71;100086.22;4946004;28;20047;-69
2023/06/14 03:07:08;;;;;;;6.93;4.85;;;;;;;16.21;55.94;100096.44;4942517;28;20484;-69
2023/06/14 03:09:37;;;;;;;7.45;4.90;;;;;;;16.20;56.25;100099.22;4947385;29;20054;-69
2023/06/14 03:12:06;;;;;;;9.25;5.20;;;;;;;16.12;56.05;100100.63;4945718;29;20058;-70
2023/06/14 03:14:34;;;;;;;9.50;5.13;;;;;;;16.10;56.54;100104.38;4933449;28;20047;-70
2023/06/14 03:17:04;;;;;;;7.45;4.80;;;;;;;16.02;56.78;100099.59;4926645;29;20430;-70
2023/06/14 03:19:31;;;;;;;7.07;5.10;;;;;;;16.05;57.23;100106.56;4945987;29;20054;-70
2023/06/14 03:21:58;;;;;;;8.18;4.97;;;;;;;15.98;57.15;100114.16;4948099;28;20130;-69
2023/06/14 03:24:29;;;;;;;7.85;4.72;;;;;;;15.96;56.89;100115.22;4942946;28;20135;-70
2023/06/14 03:26:56;;;;;;;6.47;4.80;;;;;;;15.98;57.01;100119.50;4940269;28;20059;-70
2023/06/14 03:29:23;;;;;;;6.97;5.05;;;;;;;15.97;56.47;100122.28;4945582;28;20074;-70
2023/06/14 03:31:59;;;;;;;6.40;4.30;;;;;;;15.94;56.60;100128.69;4947447;28;20430;-70
2023/06/14 03:34:26;;;;;;;8.65;5.28;;;;;;;15.91;56.41;100128.91;4945428;28;20055;-70
2023/06/14 03:36:59;;;;;;;8.77;4.93;;;;;;;15.91;56.54;100138.72;4939066;28;20071;-70
2023/06/14 03:39:27;;;;;;;7.95;5.10;;;;;;;15.92;56.21;100140.44;4951032;28;20061;-70
2023/06/14 03:41:53;;;;;;;7.78;5.28;;;;;;;15.88;56.78;100128.31;4931209;29;20091;-70
2023/06/14 03:44:20;;;;;;;6.57;4.57;;;;;;;15.89;57.01;100141.53;4928346;28;20047;-69
2023/06/14 03:46:48;;;;;;;6.95;4.93;;;;;;;15.86;57.22;100132.88;4925182;29;20058;-69
2023/06/14 03:49:16;;;;;;;6.40;4.82;;;;;;;15.90;57.78;100137.88;4947681;28;20059;-69
2023/06/14 03:51:43;;;;;;;6.55;4.90;;;;;;;15.93;57.15;100153.69;4948149;28;20043;-69
2023/06/14 03:54:10;;;;;;;6.88;4.93;;;;;;;15.93;57.73;100144.81;4946580;28;20173;-70
2023/06/14 03:56:56;;;;;;;7.88;4.30;;;;;;;15.96;57.66;100149.94;4940370;28;20043;-70
2023/06/14 03:59:23;;;;;;;6.80;4.45;;;;;;;15.92;57.79;100153.78;4927996;28;20048;-69
2023/06/14 04:01:50;;;;;;;6.80;5.43;;;;;;;15.91;58.41;100160.94;4945248;28;20410;-69
2023/06/14 04:04:18;;;;;;;9.48;5.30;;;;;;;15.88;58.54;100155.84;4945585;28;20086;-69
2023/06/14 04:06:48;;;;;;;7.10;4.75;;;;;;;15.85;58.72;100156.06;4923676;29;20047;-70
2023/06/14 04:09:14;;;;;;;6.00;4.88;;;;;;;15.87;58.87;100154.16;4929253;28;20078;-69
2023/06/14 04:11:41;;;;;;;8.15;5.75;;;;;;;15.95;58.59;100159.75;4928359;29;20143;-70
2023/06/14 04:14:07;;;;;;;12.23;4.65;;;;;;;15.92;58.53;100161.81;4927127;28;20176;-70
2023/06/14 04:16:34;;;;;;;7.88;4.90;;;;;;;15.81;58.48;100141.22;4927588;28;20576;-69
2023/06/14 04:19:02;;;;;;;7.88;4.72;;;;;;;15.92;59.12;100173.34;4923176;29;20092;-68
2023/06/14 04:21:29;;;;;;;6.65;4.80;;;;;;;15.96;58.37;100165.97;4948614;28;20052;-69
2023/06/14 04:23:56;;;;;;;8.43;4.97;;;;;;;15.93;58.25;100168.84;4917531;29;20130;-69
2023/06/14 04:26:29;;;;;;;8.98;4.75;;;;;;;15.93;58.93;100171.53;4944449;28;20165;-69
2023/06/14 04:29:02;;;;;;;5.72;4.32;;;;;;;15.98;59.28;100172.91;4912897;28;20047;-71
2023/06/14 04:31:33;;;;;;;9.93;4.68;;;;;;;16.06;59.14;100181.19;4951694;28;20058;-69
2023/06/14 04:34:00;;;;;;;6.72;4.80;;;;;;;16.00;59.49;100172.78;4950909;28;20051;-69
2023/06/14 04:36:27;;;;;;;9.18;4.93;;;;;;;16.06;59.91;100175.00;4946805;28;20130;-69
2023/06/14 04:39:03;;;;;;;7.57;4.40;;;;;;;16.15;59.68;100182.34;4928953;29;20096;-70
2023/06/14 04:41:30;;;;;;;8.05;4.53;;;;;;;16.18;58.45;100182.13;4922286;29;20047;-70
2023/06/14 04:44:01;;;;;;;8.43;4.63;;;;;;;16.19;58.87;100197.19;4945806;28;20399;-70
2023/06/14 04:46:28;;;;;;;8.18;4.50;;;;;;;16.21;59.87;100187.25;4947532;28;20118;-69
2023/06/14 04:48:56;;;;;;;9.13;4.53;;;;;;;16.27;58.88;100196.63;4944797;28;20051;-69
2023/06/14 04:51:29;;;;;;;6.50;4.60;;;;;;;16.29;59.52;100186.69;4937823;28;20059;-71
2023/06/14 04:53:59;;;;;;;6.82;4.68;;;;;;;16.37;59.71;100190.47;4947580;28;20055;-69
2023/06/14 04:56:27;;;;;;;9.57;4.80;;;;;;;16.40;58.75;100184.06;4932807;29;20081;-69
2023/06/14 04:58:56;;;;;;;6.32;4.60;;;;;;;16.46;59.50;100184.47;4942570;28;20577;-70
2023/06/14 05:01:23;;;;;;;6.38;4.20;;;;;;;16.53;59.57;100192.03;4944485;28;20049;-69
2023/06/14 05:03:49;;;;;;;7.28;4.68;;;;;;;16.62;58.25;100200.22;4948861;28;20055;-70
2023/06/14 05:06:20;;;;;;;7.53;4.70;;;;;;;16.67;58.31;100206.09;4947184;28;20055;-70
2023/06/14 05:08:46;;;;;;;6.60;4.13;;;;;;;16.72;58.14;100208.41;4925814;29;20134;-69
2023/06/14 05:11:13;;;;;;;4.55;4.13;;;;;;;16.77;58.20;100206.25;4950215;29;20058;-70
2023/06/14 05:13:41;;;;;;;9.75;4.90;;;;;;;16.72;58.43;100190.53;4945180;28;20043;-70
2023/06/14 05:16:08;;;;;;;6.25;4.65;;;;;;;16.76;58.74;100208.06;4934682;28;20055;-70
2023/06/14 05:18:35;;;;;;;10.15;4.80;;;;;;;16.74;58.93;100204.66;4945557;28;20429;-72
2023/06/14 05:21:02;;;;;;;6.47;4.75;;;;;;;16.79;60.19;100207.00;4950369;28;20509;-70
2023/06/14 05:23:31;;;;;;;6.93;4.32;;;;;;;16.83;59.21;100203.13;4950892;29;20430;-69
2023/06/14 05:25:58;;;;;;;6.35;4.85;;;;;;;16.91;59.69;100206.06;4946166;28;20070;-69
2023/06/14 05:28:24;;;;;;;6.60;4.20;;;;;;;16.92;60.41;100206.91;4939721;28;20537;-70
2023/06/14 05:30:52;;;;;;;5.88;4.32;;;;;;;17.03;59.72;100221.16;4943665;28;20518;-70
2023/06/14 05:33:19;;;;;;;6.53;4.45;;;;;;;17.09;59.63;100219.84;4948698;29;20055;-70
2023/06/14 05:35:47;;;;;;;6.38;4.63;;;;;;;17.15;58.58;100222.94;4948057;28;20051;-70
2023/06/14 05:38:13;;;;;;;5.25;4.30;;;;;;;17.18;59.45;100221.81;4909838;29;20051;-73
2023/06/14 05:40:43;;;;;;;6.57;4.40;;;;;;;17.18;61.33;100216.47;4948707;28;20057;-69
2023/06/14 05:43:11;;;;;;;5.97;4.45;;;;;;;17.24;59.46;100217.81;4949234;28;20067;-70
2023/06/14 05:45:38;;;;;;;5.50;4.32;;;;;;;17.34;59.14;100226.81;4945493;29;20129;-69
2023/06/14 05:48:05;;;;;;;7.00;4.20;;;;;;;17.40;58.44;100229.03;4924929;29;20051;-70
2023/06/14 05:50:31;;;;;;;7.32;5.13;;;;;;;17.42;59.22;100222.59;4933602;28;20206;-69
2023/06/14 05:52:58;;;;;;;7.55;4.43;;;;;;;17.46;57.58;100216.03;4932612;28;20553;-68
2023/06/14 05:55:32;;;;;;;7.53;4.47;;;;;;;17.50;57.54;100225.50;4946806;28;20592;-70
2023/06/14 05:57:59;;;;;;;8.93;4.75;;;;;;;17.59;57.48;100229.31;4931043;28;20053;-70
2023/06/14 06:00:27;;;;;;;7.95;4.60;;;;;;;17.68;56.58;100238.47;4930509;29;20140;-69
2023/06/14 06:02:57;;;;;;;6.05;4.35;;;;;;;17.75;57.27;100245.91;4952955;28;20040;-70
2023/06/14 06:05:29;;;;;;;6.47;4.25;;;;;;;17.87;57.18;100236.91;4935392;28;20130;-71
2023/06/14 06:07:55;;;;;;;6.55;4.10;;;;;;;18.01;56.44;100240.28;4946138;28;20854;-70
2023/06/14 06:10:22;;;;;;;6.25;4.50;;;;;;;18.26;56.22;100248.03;4947910;28;20143;-71
2023/06/14 06:12:51;;;;;;;6.97;4.38;;;;;;;18.43;55.61;100246.66;4934175;29;20058;-71
2023/06/14 06:15:18;;;;;;;7.40;4.57;;;;;;;18.78;53.62;100249.16;4943451;28;20054;-70
2023/06/14 06:17:45;;;;;;;6.35;4.60;;;;;;;19.07;51.96;100231.47;4948629;29;20083;-71
2023/06/14 06:20:27;;;;;;;7.47;4.40;;;;;;;19.61;50.48;100251.91;4947772;28;20051;-70
2023/06/14 06:22:54;;;;;;;7.95;4.35;;;;;;;20.00;48.71;100252.94;4931885;28;20131;-70
2023/06/14 06:25:25;;;;;;;8.15;5.00;;;;;;;20.35;47.37;100255.19;4948057;28;20134;-70
2023/06/14 06:27:53;;;;;;;8.25;4.35;;;;;;;20.58;47.31;100254.00;4937370;28;20055;-72
2023/06/14 06:30:20;;;;;;;6.07;4.40;;;;;;;20.83;46.04;100246.34;4927771;28;20061;-70
2023/06/14 06:32:48;;;;;;;5.82;4.18;;;;;;;21.02;45.67;100255.28;4929915;29;20090;-69
2023/06/14 06:35:15;;;;;;;5.80;4.07;;;;;;;21.09;45.25;100263.66;4929938;29;20638;-70
2023/06/14 06:37:43;;;;;;;7.30;3.88;;;;;;;21.20;45.45;100260.84;4943024;28;20135;-70
2023/06/14 06:40:10;;;;;;;6.45;3.95;;;;;;;21.53;48.70;100259.53;4927993;28;20576;-71
2023/06/14 06:42:37;;;;;;;6.95;4.38;;;;;;;21.77;44.06;100259.00;4931184;29;20122;-70
2023/06/14 06:45:04;;;;;;;8.18;3.83;;;;;;;22.00;43.21;100255.00;4913883;28;20043;-69
2023/06/14 06:47:31;;;;;;;7.88;4.07;;;;;;;21.98;43.39;100261.50;4926692;28;20047;-70
2023/06/14 06:49:58;;;;;;;7.18;3.75;;;;;;;22.05;43.28;100258.06;4945679;28;20043;-70
2023/06/14 06:52:32;;;;;;;4.47;3.80;;;;;;;22.18;42.78;100267.69;4944099;28;20109;-68
2023/06/14 06:55:03;;;;;;;5.72;3.88;;;;;;;22.42;42.52;100265.28;4923445;29;20441;-69
2023/06/14 06:57:30;;;;;;;4.38;3.50;;;;;;;22.44;42.38;100265.13;4927341;29;20059;-71
2023/06/14 06:59:57;;;;;;;6.05;3.78;;;;;;;22.63;44.03;100268.56;4940703;28;20138;-70
2023/06/14 07:02:25;;;;;;;6.72;3.75;;;;;;;22.73;41.51;100274.72;4944636;28;20131;-70
2023/06/14 07:04:51;;;;;;;6.53;3.03;;;;;;;22.49;41.91;100269.09;4944202;28;20047;-69
2023/06/14 07:07:18;;;;;;;6.28;3.13;;;;;;;22.44;42.25;100274.06;4943752;28;20049;-70
2023/06/14 07:09:45;;;;;;;4.90;3.25;;;;;;;22.50;42.49;100270.78;4936623;28;20861;-70
2023/06/14 07:12:15;;;;;;;4.88;3.75;;;;;;;22.74;44.03;100275.56;4926412;28;20165;-69
2023/06/14 07:14:42;;;;;;;5.78;2.80;;;;;;;22.89;40.42;100268.69;4946860;28;20533;-69
2023/06/14 07:17:09;;;;;;;4.10;2.50;;;;;;;22.63;40.49;100273.97;4948489;28;20070;-70
2023/06/14 07:19:36;;;;;;;2.70;2.50;;;;;;;22.41;42.26;100271.66;4923566;28;20054;-69
2023/06/14 07:22:03;;;;;;;2.40;2.10;;;;;;;22.47;40.75;100265.69;4930688;28;20135;-69
2023/06/14 07:24:32;;;;;;;3.95;2.10;;;;;;;22.71;39.81;100268.63;4931387;29;20115;-70
2023/06/14 07:27:04;;;;;;;4.90;2.15;;;;;;;22.94;38.99;100270.91;4927206;29;20138;-70
2023/06/14 07:29:30;;;;;;;3.15;1.90;;;;;;;23.09;39.65;100258.56;4944846;29;20142;-69
2023/06/14 07:31:57;;;;;;;3.72;2.15;;;;;;;23.30;40.51;100258.22;4942711;28;20047;-70
2023/06/14 07:34:24;;;;;;;3.65;2.58;;;;;;;23.44;39.21;100263.94;4931858;28;20133;-70
2023/06/14 07:36:54;;;;;;;5.18;1.90;;;;;;;23.49;42.00;100265.28;4948218;28;20047;-71
2023/06/14 07:39:20;;;;;;;4.90;2.20;;;;;;;23.69;39.63;100264.97;4926463;29;20106;-69
2023/06/14 07:41:48;;;;;;;3.28;2.17;;;;;;;24.03;39.25;100265.00;4949737;28;20138;-70
2023/06/14 07:44:18;;;;;;;4.35;2.22;;;;;;;24.19;38.70;100263.38;4933761;29;20043;-70
2023/06/14 07:46:45;;;;;;;4.28;2.30;;;;;;;24.26;39.81;100267.13;4930001;29;20138;-70
2023/06/14 07:49:13;;;;;;;3.47;2.10;;;;;;;24.23;37.58;100264.75;4943551;28;20066;-70
2023/06/14 07:51:40;;;;;;;3.97;2.58;;;;;;;24.10;39.74;100265.19;4949289;28;20047;-70
2023/06/14 07:54:09;;;;;;;5.30;2.58;;;;;;;24.20;39.49;100265.06;4935833;29;20122;-69
2023/06/14 07:56:36;;;;;;;3.67;2.40;;;;;;;24.40;38.14;100255.69;4952277;28;20048;-70
2023/06/14 07:59:03;;;;;;;5.13;2.30;;;;;;;24.22;39.36;100250.38;4948450;28;20063;-70
2023/06/14 08:01:30;;;;;;;4.20;2.10;;;;;;;24.33;38.87;100260.94;4948344;28;20083;-70
2023/06/14 08:03:57;;;;;;;3.75;2.33;;;;;;;24.29;38.50;100258.69;4947413;28;20139;-70
2023/06/14 08:06:25;;;;;;;3.15;2.10;;;;;;;24.21;37.91;100267.63;4948189;29;20103;-70
2023/06/14 08:08:51;;;;;;;3.80;2.00;;;;;;;24.13;37.53;100270.28;4947057;29;20056;-71
2023/06/14 08:11:19;;;;;;;3.28;2.28;;;;;;;24.00;37.85;100259.06;4935626;29;20074;-71
2023/06/14 08:13:46;;;;;;;3.72;2.20;;;;;;;23.96;37.90;100266.63;4950772;28;20071;-70
2023/06/14 08:16:12;;;;;;;2.90;2.20;;;;;;;23.72;38.18;100278.16;4918005;29;20043;-70
2023/06/14 08:18:40;;;;;;;5.00;2.35;;;;;;;23.39;38.31;100271.66;4944476;28;20398;-70
2023/06/14 08:21:09;;;;;;;4.28;2.28;;;;;;;23.27;41.09;100270.22;4929646;29;20067;-71
2023/06/14 08:23:36;;;;;;;4.63;1.90;;;;;;;23.31;39.94;100251.81;4932058;29;20057;-70
2023/06/14 08:26:04;;;;;;;3.35;2.08;;;;;;;23.50;40.47;100267.84;4936569;29;20122;-71
2023/06/14 08:28:31;;;;;;;2.63;2.30;;;;;;;23.83;38.90;100271.63;4952909;28;20126;-71
2023/06/14 08:30:58;;;;;;;5.25;2.00;;;;;;;23.84;39.54;100258.97;4950933;28;20737;-70
2023/06/14 08:33:24;;;;;;;4.78;2.25;;;;;;;23.80;40.08;100266.53;4950392;29;20051;-70
2023/06/14 08:35:51;;;;;;;2.00;1.90;;;;;;;23.65;37.72;100257.31;4933415;29;20061;-72
2023/06/14 08:38:18;;;;;;;2.67;1.55;;;;;;;23.48;38.66;100264.44;4943735;28;20051;-71
2023/06/14 08:40:51;;;;;;;2.25;1.80;;;;;;;23.44;38.46;100274.75;4926084;29;20515;-70
2023/06/14 08:43:18;;;;;;;2.83;1.30;;;;;;;23.14;39.72;100267.03;4921273;29;20051;-69
2023/06/14 08:45:48;;;;;;;2.17;1.52;;;;;;;22.89;39.49;100270.53;4951345;28;20458;-70
2023/06/14 08:48:17;;;;;;;3.42;1.70;;;;;;;22.81;40.42;100265.91;4934297;29;20048;-72
2023/06/14 08:50:46;;;;;;;4.18;1.65;;;;;;;22.99;40.08;100255.94;4948645;28;20039;-71
2023/06/14 08:53:16;;;;;;;2.40;1.50;;;;;;;23.37;40.62;100267.41;4952331;28;20517;-71
2023/06/14 08:55:43;;;;;;;2.20;1.50;;;;;;;23.68;38.58;100262.41;4933614;29;20067;-71
2023/06/14 08:58:14;;;;;;;2.42;1.73;;;;;;;23.64;38.00;100264.59;4946372;28;20077;-73
2023/06/14 09:00:42;;;;;;;2.13;1.88;;;;;;;23.73;39.07;100273.63;4944867;28;20043;-70
2023/06/14 09:03:13;;;;;;;2.03;1.65;;;;;;;23.60;38.02;100271.34;4917723;29;20079;-71
2023/06/14 09:05:40;;;;;;;3.72;1.90;;;;;;;23.14;39.09;100264.34;4930828;29;20102;-72
2023/06/14 09:08:07;;;;;;;1.90;1.70;;;;;;;22.81;40.24;100278.56;4933129;29;20039;-71
2023/06/14 09:10:37;;;;;;;3.42;2.00;;;;;;;22.78;39.53;100273.47;4934302;29;20133;-71
2023/06/14 09:13:05;;;;;;;1.90;1.40;;;;;;;22.97;39.81;100281.44;4945593;28;20929;-71
2023/06/14 09:15:32;;;;;;;2.08;1.63;;;;;;;23.31;39.78;100285.09;4929922;29;20066;-71
2023/06/14 09:18:01;;;;;;;3.20;1.98;;;;;;;23.34;38.58;100287.47;4930074;29;20066;-71
2023/06/14 09:20:30;;;;;;;4.40;1.83;;;;;;;23.03;39.15;100278.09;4945423;28;20051;-71
2023/06/14 09:22:57;;;;;;;5.03;1.80;;;;;;;22.82;39.55;100277.56;4937311;28;20055;-70
2023/06/14 09:25:27;;;;;;;4.03;2.00;;;;;;;22.49;40.33;100260.97;4950783;28;20059;-70
2023/06/14 09:28:06;;;;;;;3.60;1.90;;;;;;;22.50;39.95;100289.66;4923124;28;20166;-70
2023/06/14 09:30:33;;;;;;;1.67;1.58;;;;;;;22.39;38.80;100287.16;4949594;28;20055;-70
2023/06/14 09:33:00;;;;;;;2.75;1.83;;;;;;;22.42;38.95;100296.81;4938008;28;20055;-70
2023/06/14 09:35:30;;;;;;;4.03;1.80;;;;;;;22.55;39.93;100295.44;4934788;29;20098;-71
2023/06/14 09:37:57;;;;;;;5.82;1.73;;;;;;;22.66;39.74;100295.25;4934797;28;20047;-70
2023/06/14 09:40:24;;;;;;;1.90;1.77;;;;;;;22.80;40.27;100293.06;4949735;28;20497;-69
2023/06/14 09:42:52;;;;;;;1.95;1.75;;;;;;;23.12;40.01;100290.69;4956575;29;20445;-70
2023/06/14 09:45:21;;;;;;;2.65;2.00;;;;;;;23.22;38.77;100302.25;4954927;28;20697;-70
2023/06/14 09:47:51;;;;;;;4.45;2.03;;;;;;;23.19;38.38;100293.59;4952005;28;20067;-71
2023/06/14 09:50:33;;;;;;;3.63;2.15;;;;;;;23.20;38.61;100298.84;4950606;29;20061;-71
2023/06/14 09:53:06;;;;;;;4.78;2.20;;;;;;;23.32;38.08;100291.34;4955363;28;20047;-71
2023/06/14 09:55:36;;;;;;;2.38;2.17;;;;;;;23.42;38.25;100292.97;4952423;29;20075;-71
2023/06/14 09:58:07;;;;;;;3.25;2.03;;;;;;;23.44;37.48;100298.22;4952689;28;20054;-70
2023/06/14 10:00:36;;;;;;;3.78;1.73;;;;;;;23.51;37.37;100302.00;4927186;29;20047;-71
2023/06/14 10:03:11;;;;;;;2.50;1.73;;;;;;;23.57;36.82;100295.97;4950759;28;20066;-70
2023/06/14 10:05:41;;;;;;;2.67;1.60;;;;;;;23.56;37.15;100294.28;4928439;29;20509;-71
2023/06/14 10:08:16;;;;;;;2.55;1.90;;;;;;;23.42;37.42;100289.41;4946655;28;20050;-70
2023/06/14 10:10:43;;;;;;;3.10;1.80;;;;;;;23.35;37.52;100286.47;4943552;28;20047;-70
2023/06/14 10:13:11;;;;;;;3.88;1.90;;;;;;;23.01;37.54;100294.44;4951359;28;20059;-69
2023/06/14 10:16:09;;;;;;;3.13;1.88;;;;;;;22.77;38.07;100293.34;4950808;28;20051;-69
2023/06/14 10:18:40;;;;;;;2.38;2.17;;;;;;;22.58;38.03;100287.06;4941199;29;20058;-71
2023/06/14 10:21:31;;;;;;;3.20;1.88;;;;;;;22.59;38.57;100288.75;4940023;28;20142;-71
2023/06/14 10:24:03;;;;;;;2.20;2.00;;;;;;;22.72;38.24;100289.22;4942250;28;20357;-71
2023/06/14 10:26:30;;;;;;;4.63;1.90;;;;;;;22.89;37.99;100281.31;4949191;28;20067;-71
2023/06/14 10:29:06;;;;;;;5.35;2.00;;;;;;;22.87;39.09;100278.78;4934099;29;20150;-71
2023/06/14 10:31:48;;;;;;;2.47;2.10;;;;;;;22.62;38.47;100274.97;4927923;29;20469;-70
2023/06/14 10:34:24;;;;;;;5.05;2.33;;;;;;;22.70;38.99;100279.56;4945318;28;20077;-69
2023/06/14 10:37:10;;;;;;;6.22;2.47;;;;;;;22.83;39.62;100280.06;4941665;28;20062;-72
2023/06/14 10:39:47;;;;;;;2.72;2.13;;;;;;;23.17;39.62;100277.53;4928249;29;20051;-72
2023/06/14 10:42:14;;;;;;;4.03;2.47;;;;;;;23.32;38.19;100284.06;4929921;28;20043;-72
2023/06/14 10:44:46;;;;;;;5.15;2.00;;;;;;;23.53;38.02;100281.06;4946700;28;20039;-71
2023/06/14 10:47:26;;;;;;;2.92;2.05;;;;;;;23.62;38.03;100277.41;4950307;28;20510;-70
2023/06/14 10:49:54;;;;;;;;;;;;;;;23.78;37.85;100276.66;4942494;28;20055;-73
2023/06/14 10:52:24;;;;;;;2.80;2.00;;;;;;;23.72;37.94;100277.31;4946017;28;20004;-71
2023/06/14 10:55:01;;;;;;;3.70;2.42;;;;;;;23.64;38.33;100275.41;4925454;29;20134;-72
2023/06/14 10:57:28;;;;;;;3.75;2.40;;;;;;;23.57;39.18;100284.31;4936666;28;20126;-72
2023/06/14 10:59:55;;;;;;;2.40;2.20;;;;;;;23.34;38.05;100282.06;4940204;28;20039;-73
2023/06/14 11:02:22;;;;;;;3.80;2.33;;;;;;;23.15;39.20;100281.38;4945675;28;20611;-72
2023/06/14 11:04:51;;;;;;;4.60;2.20;;;;;;;22.98;40.09;100270.44;4943335;28;20490;-71
2023/06/14 11:07:52;;;;;;;2.92;2.33;;;;;;;23.14;38.99;100267.03;4946937;29;20051;-72
2023/06/14 11:10:41;;;;;;;2.75;2.22;;;;;;;23.53;38.35;100285.63;4921639;29;20532;-71
2023/06/14 11:13:08;;;;;;;3.45;2.25;;;;;;;23.57;37.47;100274.34;4929811;29;20043;-67
2023/06/14 11:15:37;;;;;;;3.25;2.20;;;;;;;23.77;36.63;100292.03;4945820;28;20043;-69
2023/06/14 11:18:06;;;;;;;3.58;2.00;;;;;;;23.97;36.46;100275.59;4929508;29;20267;-70
2023/06/14 11:20:35;;;;;;;4.28;2.08;;;;;;;24.33;35.61;100269.03;4922251;28;21670;-69
2023/06/14 11:23:03;;;;;;;2.40;2.20;;;;;;;24.50;35.95;100263.69;4949764;28;20040;-70
2023/06/14 11:25:30;;;;;;;2.30;2.10;;;;;;;24.52;36.35;100264.38;4952131;28;20074;-68
2023/06/14 11:27:59;;;;;;;2.97;2.33;;;;;;;24.34;36.67;100261.78;4931535;29;20114;-71
2023/06/14 11:30:26;;;;;;;3.78;2.00;;;;;;;24.35;36.13;100268.88;4937829;28;20047;-72
2023/06/14 11:32:56;;;;;;;2.97;1.90;;;;;;;24.38;35.67;100273.97;4949251;28;20071;-70
2023/06/14 11:35:26;;;;;;;2.35;2.08;;;;;;;24.30;36.12;100273.94;4949180;28;20047;-70